sensor_id;sensor_type;location;lat;lon;timestamp;temperature;humidity
8481;DHT22;4277;51.354;6.740;2022-10-17T00:01:48;15.00;99.90
8481;DHT22;4277;51.354;6.740;2022-10-17T00:09:05;15.10;99.90
8481;DHT22;4277;51.354;6.740;2022-10-17T00:11:31;15.00;99.90
8481;DHT22;4277;51.354;6.740;2022-10-17T00:13:56;15.00;99.90
8481;DHT22;4277;51.354;6.740;2022-10-17T00:16:31;15.10;99.90
8481;DHT22;4277;51.354;6.740;2022-10-17T00:26:16;15.10;99.90
8481;DHT22;4277;51.354;6.740;2022-10-17T00:28:41;15.00;99.90
8481;DHT22;4277;51.354;6.740;2022-10-17T00:38:35;15.20;99.90
8481;DHT22;4277;51.354;6.740;2022-10-17T00:41:01;15.10;99.90
8481;DHT22;4277;51.354;6.740;2022-10-17T00:43:27;15.10;99.90
8481;DHT22;4277;51.354;6.740;2022-10-17T00:50:47;15.10;99.90
8481;DHT22;4277;51.354;6.740;2022-10-17T00:55:49;15.40;99.90
8481;DHT22;4277;51.354;6.740;2022-10-17T01:03:09;15.40;99.90
8481;DHT22;4277;51.354;6.740;2022-10-17T01:08:01;15.30;99.90
8481;DHT22;4277;51.354;6.740;2022-10-17T01:13:07;15.40;99.90
8481;DHT22;4277;51.354;6.740;2022-10-17T01:18:29;15.20;99.90
8481;DHT22;4277;51.354;6.740;2022-10-17T01:45:05;15.40;99.90
8481;DHT22;4277;51.354;6.740;2022-10-17T01:47:34;15.40;99.90
8481;DHT22;4277;51.354;6.740;2022-10-17T01:57:55;15.40;99.90
8481;DHT22;4277;51.354;6.740;2022-10-17T02:00:23;15.30;99.90
8481;DHT22;4277;51.354;6.740;2022-10-17T02:02:58;15.40;99.90
8481;DHT22;4277;51.354;6.740;2022-10-17T02:05:37;15.50;99.90
8481;DHT22;4277;51.354;6.740;2022-10-17T02:08:05;15.50;99.90
8481;DHT22;4277;51.354;6.740;2022-10-17T02:10:38;15.50;99.90
8481;DHT22;4277;51.354;6.740;2022-10-17T02:24:32;15.50;99.90
8481;DHT22;4277;51.354;6.740;2022-10-17T02:37:14;15.50;99.90
8481;DHT22;4277;51.354;6.740;2022-10-17T03:06:54;15.60;99.90
8481;DHT22;4277;51.354;6.740;2022-10-17T03:09:20;15.50;99.90
8481;DHT22;4277;51.354;6.740;2022-10-17T03:33:41;15.50;99.90
8481;DHT22;4277;51.354;6.740;2022-10-17T03:36:12;15.50;99.90
8481;DHT22;4277;51.354;6.740;2022-10-17T03:38:38;15.50;99.90
8481;DHT22;4277;51.354;6.740;2022-10-17T03:43:30;15.40;99.90
8481;DHT22;4277;51.354;6.740;2022-10-17T03:45:57;15.40;99.90
8481;DHT22;4277;51.354;6.740;2022-10-17T03:48:23;15.40;99.90
8481;DHT22;4277;51.354;6.740;2022-10-17T03:50:49;15.40;99.90
8481;DHT22;4277;51.354;6.740;2022-10-17T03:53:15;15.40;99.90
8481;DHT22;4277;51.354;6.740;2022-10-17T03:55:40;15.60;99.90
8481;DHT22;4277;51.354;6.740;2022-10-17T03:58:06;15.60;99.90
8481;DHT22;4277;51.354;6.740;2022-10-17T04:00:31;15.60;99.90
8481;DHT22;4277;51.354;6.740;2022-10-17T04:02:57;15.70;99.90
8481;DHT22;4277;51.354;6.740;2022-10-17T04:05:23;15.70;99.90
8481;DHT22;4277;51.354;6.740;2022-10-17T04:07:49;15.60;99.90
8481;DHT22;4277;51.354;6.740;2022-10-17T04:10:14;15.60;99.90
8481;DHT22;4277;51.354;6.740;2022-10-17T04:12:40;15.70;99.90
8481;DHT22;4277;51.354;6.740;2022-10-17T04:19:58;15.80;99.90
8481;DHT22;4277;51.354;6.740;2022-10-17T04:24:49;15.80;99.90
8481;DHT22;4277;51.354;6.740;2022-10-17T04:27:15;15.80;99.90
8481;DHT22;4277;51.354;6.740;2022-10-17T04:29:40;15.70;99.90
8481;DHT22;4277;51.354;6.740;2022-10-17T04:32:06;15.80;99.90
8481;DHT22;4277;51.354;6.740;2022-10-17T04:36:57;15.70;99.90
8481;DHT22;4277;51.354;6.740;2022-10-17T04:44:15;15.80;99.90
8481;DHT22;4277;51.354;6.740;2022-10-17T04:58:51;15.90;99.90
8481;DHT22;4277;51.354;6.740;2022-10-17T05:01:20;15.90;99.90
8481;DHT22;4277;51.354;6.740;2022-10-17T05:03:46;15.90;99.90
8481;DHT22;4277;51.354;6.740;2022-10-17T05:06:21;15.90;99.90
8481;DHT22;4277;51.354;6.740;2022-10-17T05:08:47;15.80;99.90
8481;DHT22;4277;51.354;6.740;2022-10-17T05:11:24;15.80;99.90
8481;DHT22;4277;51.354;6.740;2022-10-17T05:13:51;15.80;99.90
8481;DHT22;4277;51.354;6.740;2022-10-17T05:16:18;15.80;99.90
8481;DHT22;4277;51.354;6.740;2022-10-17T05:18:47;15.80;99.90
8481;DHT22;4277;51.354;6.740;2022-10-17T05:23:39;15.80;99.90
8481;DHT22;4277;51.354;6.740;2022-10-17T05:26:04;15.90;99.90
8481;DHT22;4277;51.354;6.740;2022-10-17T05:28:30;15.70;99.90
8481;DHT22;4277;51.354;6.740;2022-10-17T05:30:55;15.70;99.90
8481;DHT22;4277;51.354;6.740;2022-10-17T05:33:22;15.70;99.90
8481;DHT22;4277;51.354;6.740;2022-10-17T05:35:47;15.90;99.90
8481;DHT22;4277;51.354;6.740;2022-10-17T05:38:13;15.80;99.90
8481;DHT22;4277;51.354;6.740;2022-10-17T05:40:38;15.90;99.90
8481;DHT22;4277;51.354;6.740;2022-10-17T05:43:04;15.90;99.90
8481;DHT22;4277;51.354;6.740;2022-10-17T05:45:30;15.90;99.90
8481;DHT22;4277;51.354;6.740;2022-10-17T05:47:56;15.90;99.90
8481;DHT22;4277;51.354;6.740;2022-10-17T05:50:21;15.90;99.90
8481;DHT22;4277;51.354;6.740;2022-10-17T05:52:52;15.90;99.90
8481;DHT22;4277;51.354;6.740;2022-10-17T05:55:18;15.90;99.90
8481;DHT22;4277;51.354;6.740;2022-10-17T05:57:43;15.90;99.90
8481;DHT22;4277;51.354;6.740;2022-10-17T06:00:09;15.90;99.90
8481;DHT22;4277;51.354;6.740;2022-10-17T06:02:35;15.90;99.90
8481;DHT22;4277;51.354;6.740;2022-10-17T06:05:00;15.80;99.90
8481;DHT22;4277;51.354;6.740;2022-10-17T06:07:26;15.80;99.90
8481;DHT22;4277;51.354;6.740;2022-10-17T06:09:52;15.80;99.90
8481;DHT22;4277;51.354;6.740;2022-10-17T06:12:17;15.80;99.90
8481;DHT22;4277;51.354;6.740;2022-10-17T06:14:43;15.70;99.90
8481;DHT22;4277;51.354;6.740;2022-10-17T06:17:08;15.70;99.90
8481;DHT22;4277;51.354;6.740;2022-10-17T06:19:34;15.60;99.90
8481;DHT22;4277;51.354;6.740;2022-10-17T06:22:00;15.70;99.90
8481;DHT22;4277;51.354;6.740;2022-10-17T06:24:25;15.80;99.90
8481;DHT22;4277;51.354;6.740;2022-10-17T06:29:17;15.80;99.90
8481;DHT22;4277;51.354;6.740;2022-10-17T06:31:42;15.70;99.90
8481;DHT22;4277;51.354;6.740;2022-10-17T06:34:08;15.80;99.90
8481;DHT22;4277;51.354;6.740;2022-10-17T06:36:34;15.80;99.90
8481;DHT22;4277;51.354;6.740;2022-10-17T06:38:59;15.70;99.90
8481;DHT22;4277;51.354;6.740;2022-10-17T06:41:25;15.80;99.90
8481;DHT22;4277;51.354;6.740;2022-10-17T06:43:51;15.90;99.90
8481;DHT22;4277;51.354;6.740;2022-10-17T06:46:18;15.90;99.90
8481;DHT22;4277;51.354;6.740;2022-10-17T06:48:44;16.10;99.90
8481;DHT22;4277;51.354;6.740;2022-10-17T06:51:10;16.00;99.90
8481;DHT22;4277;51.354;6.740;2022-10-17T06:53:37;16.10;99.90
8481;DHT22;4277;51.354;6.740;2022-10-17T06:56:04;16.10;99.90
8481;DHT22;4277;51.354;6.740;2022-10-17T06:58:33;16.20;99.90
8481;DHT22;4277;51.354;6.740;2022-10-17T07:00:59;16.20;99.90
8481;DHT22;4277;51.354;6.740;2022-10-17T07:03:25;16.20;99.90
8481;DHT22;4277;51.354;6.740;2022-10-17T07:05:51;16.10;99.90
8481;DHT22;4277;51.354;6.740;2022-10-17T07:08:17;16.20;99.90
8481;DHT22;4277;51.354;6.740;2022-10-17T07:10:42;16.20;99.90
8481;DHT22;4277;51.354;6.740;2022-10-17T07:13:08;16.20;99.90
8481;DHT22;4277;51.354;6.740;2022-10-17T07:15:34;16.20;99.90
8481;DHT22;4277;51.354;6.740;2022-10-17T07:18:00;16.20;99.90
8481;DHT22;4277;51.354;6.740;2022-10-17T07:20:26;16.30;99.90
8481;DHT22;4277;51.354;6.740;2022-10-17T07:22:51;16.40;99.90
8481;DHT22;4277;51.354;6.740;2022-10-17T07:25:17;16.30;99.90
8481;DHT22;4277;51.354;6.740;2022-10-17T07:27:42;16.40;99.90
8481;DHT22;4277;51.354;6.740;2022-10-17T07:30:08;16.40;99.90
8481;DHT22;4277;51.354;6.740;2022-10-17T07:32:34;16.40;99.90
8481;DHT22;4277;51.354;6.740;2022-10-17T07:35:00;16.40;99.90
8481;DHT22;4277;51.354;6.740;2022-10-17T07:37:25;16.60;99.90
8481;DHT22;4277;51.354;6.740;2022-10-17T07:39:51;16.70;99.90
8481;DHT22;4277;51.354;6.740;2022-10-17T07:47:11;16.70;99.90
8481;DHT22;4277;51.354;6.740;2022-10-17T07:49:37;16.50;99.90
8481;DHT22;4277;51.354;6.740;2022-10-17T07:52:12;16.70;99.90
8481;DHT22;4277;51.354;6.740;2022-10-17T07:54:37;16.80;99.90
8481;DHT22;4277;51.354;6.740;2022-10-17T07:57:03;16.90;99.90
8481;DHT22;4277;51.354;6.740;2022-10-17T07:59:29;16.90;99.90
8481;DHT22;4277;51.354;6.740;2022-10-17T08:01:57;17.00;99.90
8481;DHT22;4277;51.354;6.740;2022-10-17T08:04:24;17.10;99.90
8481;DHT22;4277;51.354;6.740;2022-10-17T08:06:49;17.10;99.90
8481;DHT22;4277;51.354;6.740;2022-10-17T08:09:15;17.30;99.90
8481;DHT22;4277;51.354;6.740;2022-10-17T08:11:41;17.20;99.90
8481;DHT22;4277;51.354;6.740;2022-10-17T08:14:09;17.20;99.90
8481;DHT22;4277;51.354;6.740;2022-10-17T08:19:01;17.30;99.90
8481;DHT22;4277;51.354;6.740;2022-10-17T08:21:26;17.40;99.90
8481;DHT22;4277;51.354;6.740;2022-10-17T08:23:52;17.40;99.90
8481;DHT22;4277;51.354;6.740;2022-10-17T08:26:18;17.50;99.90
8481;DHT22;4277;51.354;6.740;2022-10-17T08:28:45;17.40;99.90
8481;DHT22;4277;51.354;6.740;2022-10-17T08:31:13;17.50;99.90
8481;DHT22;4277;51.354;6.740;2022-10-17T08:33:40;17.40;99.90
8481;DHT22;4277;51.354;6.740;2022-10-17T08:36:07;17.50;99.90
8481;DHT22;4277;51.354;6.740;2022-10-17T08:38:33;17.60;99.90
8481;DHT22;4277;51.354;6.740;2022-10-17T08:43:42;17.60;99.90
8481;DHT22;4277;51.354;6.740;2022-10-17T08:46:13;17.70;99.90
8481;DHT22;4277;51.354;6.740;2022-10-17T08:48:42;17.60;99.90
8481;DHT22;4277;51.354;6.740;2022-10-17T08:53:38;18.00;99.90
8481;DHT22;4277;51.354;6.740;2022-10-17T08:58:43;18.10;99.90
8481;DHT22;4277;51.354;6.740;2022-10-17T09:10:03;17.90;99.90
8481;DHT22;4277;51.354;6.740;2022-10-17T09:12:42;18.00;99.90
8481;DHT22;4277;51.354;6.740;2022-10-17T09:18:24;18.20;99.90
8481;DHT22;4277;51.354;6.740;2022-10-17T09:23:48;18.40;99.90
8481;DHT22;4277;51.354;6.740;2022-10-17T09:26:14;18.70;99.90
8481;DHT22;4277;51.354;6.740;2022-10-17T09:28:41;18.60;99.90
8481;DHT22;4277;51.354;6.740;2022-10-17T09:31:25;18.60;99.90
8481;DHT22;4277;51.354;6.740;2022-10-17T09:33:54;18.70;99.90
8481;DHT22;4277;51.354;6.740;2022-10-17T09:36:23;18.70;99.90
8481;DHT22;4277;51.354;6.740;2022-10-17T09:39:03;18.70;99.90
8481;DHT22;4277;51.354;6.740;2022-10-17T09:41:31;18.40;99.90
8481;DHT22;4277;51.354;6.740;2022-10-17T09:44:07;18.40;99.90
8481;DHT22;4277;51.354;6.740;2022-10-17T09:46:37;18.40;99.90
8481;DHT22;4277;51.354;6.740;2022-10-17T09:49:13;18.30;99.90
8481;DHT22;4277;51.354;6.740;2022-10-17T09:51:40;18.30;99.90
8481;DHT22;4277;51.354;6.740;2022-10-17T09:54:18;18.30;99.90
8481;DHT22;4277;51.354;6.740;2022-10-17T09:57:05;18.40;99.90
8481;DHT22;4277;51.354;6.740;2022-10-17T09:59:43;18.30;99.90
8481;DHT22;4277;51.354;6.740;2022-10-17T10:17:38;18.30;99.90
8481;DHT22;4277;51.354;6.740;2022-10-17T10:20:33;18.00;99.90
8481;DHT22;4277;51.354;6.740;2022-10-17T10:23:25;18.00;99.90
8481;DHT22;4277;51.354;6.740;2022-10-17T10:25:54;18.10;99.90
8481;DHT22;4277;51.354;6.740;2022-10-17T10:28:24;18.10;99.90
8481;DHT22;4277;51.354;6.740;2022-10-17T10:30:51;18.20;99.90
8481;DHT22;4277;51.354;6.740;2022-10-17T10:33:19;18.30;99.90
8481;DHT22;4277;51.354;6.740;2022-10-17T10:36:09;18.30;99.90
8481;DHT22;4277;51.354;6.740;2022-10-17T10:38:39;18.40;99.90
8481;DHT22;4277;51.354;6.740;2022-10-17T10:41:08;18.50;99.90
8481;DHT22;4277;51.354;6.740;2022-10-17T10:43:38;18.70;99.90
8481;DHT22;4277;51.354;6.740;2022-10-17T10:46:15;18.70;99.90
8481;DHT22;4277;51.354;6.740;2022-10-17T10:54:13;18.70;99.90
8481;DHT22;4277;51.354;6.740;2022-10-17T10:59:16;18.60;99.90
8481;DHT22;4277;51.354;6.740;2022-10-17T11:01:53;18.50;99.90
8481;DHT22;4277;51.354;6.740;2022-10-17T11:04:41;18.30;99.90
8481;DHT22;4277;51.354;6.740;2022-10-17T11:07:13;18.30;99.90
8481;DHT22;4277;51.354;6.740;2022-10-17T11:09:47;18.40;99.90
8481;DHT22;4277;51.354;6.740;2022-10-17T11:12:24;18.30;99.90
8481;DHT22;4277;51.354;6.740;2022-10-17T11:17:44;18.40;99.90
8481;DHT22;4277;51.354;6.740;2022-10-17T11:20:19;18.40;99.90
8481;DHT22;4277;51.354;6.740;2022-10-17T11:22:54;18.40;99.90
8481;DHT22;4277;51.354;6.740;2022-10-17T11:25:30;18.30;99.90
8481;DHT22;4277;51.354;6.740;2022-10-17T11:27:56;18.40;99.90
8481;DHT22;4277;51.354;6.740;2022-10-17T11:30:23;18.40;99.90
8481;DHT22;4277;51.354;6.740;2022-10-17T11:32:59;18.50;99.90
8481;DHT22;4277;51.354;6.740;2022-10-17T11:38:02;18.50;99.90
8481;DHT22;4277;51.354;6.740;2022-10-17T11:40:34;18.60;99.90
8481;DHT22;4277;51.354;6.740;2022-10-17T11:43:03;18.70;99.90
8481;DHT22;4277;51.354;6.740;2022-10-17T11:45:35;18.70;99.90
8481;DHT22;4277;51.354;6.740;2022-10-17T11:48:06;18.80;99.90
8481;DHT22;4277;51.354;6.740;2022-10-17T11:50:39;18.90;99.90
8481;DHT22;4277;51.354;6.740;2022-10-17T11:53:27;18.80;99.90
8481;DHT22;4277;51.354;6.740;2022-10-17T11:55:57;18.70;99.90
8481;DHT22;4277;51.354;6.740;2022-10-17T11:58:38;18.80;99.90
8481;DHT22;4277;51.354;6.740;2022-10-17T12:06:56;18.70;99.90
8481;DHT22;4277;51.354;6.740;2022-10-17T12:12:27;18.60;99.90
8481;DHT22;4277;51.354;6.740;2022-10-17T12:14:53;18.60;99.90
8481;DHT22;4277;51.354;6.740;2022-10-17T12:17:43;18.60;99.90
8481;DHT22;4277;51.354;6.740;2022-10-17T12:25:35;18.60;99.90
8481;DHT22;4277;51.354;6.740;2022-10-17T12:28:29;18.60;99.90
8481;DHT22;4277;51.354;6.740;2022-10-17T12:31:01;18.50;99.90
8481;DHT22;4277;51.354;6.740;2022-10-17T12:33:37;18.50;99.90
8481;DHT22;4277;51.354;6.740;2022-10-17T12:46:55;18.50;99.90
8481;DHT22;4277;51.354;6.740;2022-10-17T12:49:48;18.40;99.90
8481;DHT22;4277;51.354;6.740;2022-10-17T12:52:20;18.30;99.90
8481;DHT22;4277;51.354;6.740;2022-10-17T12:54:52;18.30;99.90
8481;DHT22;4277;51.354;6.740;2022-10-17T13:00:41;18.30;99.90
8481;DHT22;4277;51.354;6.740;2022-10-17T13:03:17;18.30;99.90
8481;DHT22;4277;51.354;6.740;2022-10-17T13:05:50;18.30;99.90
8481;DHT22;4277;51.354;6.740;2022-10-17T13:08:43;18.20;99.90
8481;DHT22;4277;51.354;6.740;2022-10-17T13:11:07;18.30;99.90
8481;DHT22;4277;51.354;6.740;2022-10-17T13:13:52;18.30;99.90
8481;DHT22;4277;51.354;6.740;2022-10-17T13:16:33;18.30;99.90
8481;DHT22;4277;51.354;6.740;2022-10-17T13:19:00;18.20;99.90
8481;DHT22;4277;51.354;6.740;2022-10-17T13:21:26;18.20;99.90
8481;DHT22;4277;51.354;6.740;2022-10-17T13:23:52;18.30;99.90
8481;DHT22;4277;51.354;6.740;2022-10-17T13:26:23;18.20;99.90
8481;DHT22;4277;51.354;6.740;2022-10-17T13:29:03;18.20;99.90
8481;DHT22;4277;51.354;6.740;2022-10-17T13:31:34;18.30;99.90
8481;DHT22;4277;51.354;6.740;2022-10-17T13:34:02;18.30;99.90
8481;DHT22;4277;51.354;6.740;2022-10-17T13:36:29;18.40;99.90
8481;DHT22;4277;51.354;6.740;2022-10-17T13:38:57;18.30;99.90
8481;DHT22;4277;51.354;6.740;2022-10-17T13:41:27;18.40;99.90
8481;DHT22;4277;51.354;6.740;2022-10-17T13:43:53;18.40;99.90
8481;DHT22;4277;51.354;6.740;2022-10-17T13:46:27;18.40;99.90
8481;DHT22;4277;51.354;6.740;2022-10-17T13:48:54;18.40;99.90
8481;DHT22;4277;51.354;6.740;2022-10-17T13:51:21;18.40;99.90
8481;DHT22;4277;51.354;6.740;2022-10-17T13:53:47;18.40;99.90
8481;DHT22;4277;51.354;6.740;2022-10-17T14:01:10;18.50;99.90
8481;DHT22;4277;51.354;6.740;2022-10-17T14:03:36;18.50;99.90
8481;DHT22;4277;51.354;6.740;2022-10-17T14:08:38;18.50;99.90
8481;DHT22;4277;51.354;6.740;2022-10-17T14:16:13;18.70;99.90
8481;DHT22;4277;51.354;6.740;2022-10-17T14:23:36;18.70;99.90
8481;DHT22;4277;51.354;6.740;2022-10-17T14:26:09;18.60;99.90
8481;DHT22;4277;51.354;6.740;2022-10-17T14:28:35;18.70;99.90
8481;DHT22;4277;51.354;6.740;2022-10-17T14:31:28;18.70;99.90
8481;DHT22;4277;51.354;6.740;2022-10-17T14:38:55;18.80;99.90
8481;DHT22;4277;51.354;6.740;2022-10-17T14:44:01;18.80;99.90
8481;DHT22;4277;51.354;6.740;2022-10-17T14:46:27;18.80;99.90
8481;DHT22;4277;51.354;6.740;2022-10-17T14:49:03;18.70;99.90
8481;DHT22;4277;51.354;6.740;2022-10-17T14:51:29;18.80;99.90
8481;DHT22;4277;51.354;6.740;2022-10-17T14:56:37;18.70;99.90
8481;DHT22;4277;51.354;6.740;2022-10-17T14:59:03;18.70;99.90
8481;DHT22;4277;51.354;6.740;2022-10-17T15:01:30;18.60;99.90
8481;DHT22;4277;51.354;6.740;2022-10-17T15:03:56;18.70;99.90
8481;DHT22;4277;51.354;6.740;2022-10-17T15:06:32;18.60;99.90
8481;DHT22;4277;51.354;6.740;2022-10-17T15:11:24;18.70;99.90
8481;DHT22;4277;51.354;6.740;2022-10-17T15:13:50;18.70;99.90
8481;DHT22;4277;51.354;6.740;2022-10-17T15:18:47;18.60;99.90
8481;DHT22;4277;51.354;6.740;2022-10-17T15:21:14;18.70;99.90
8481;DHT22;4277;51.354;6.740;2022-10-17T15:23:40;18.60;99.90
8481;DHT22;4277;51.354;6.740;2022-10-17T15:26:15;18.50;99.90
8481;DHT22;4277;51.354;6.740;2022-10-17T15:28:41;18.50;99.90
8481;DHT22;4277;51.354;6.740;2022-10-17T15:31:10;18.40;99.90
8481;DHT22;4277;51.354;6.740;2022-10-17T15:33:36;18.40;99.90
8481;DHT22;4277;51.354;6.740;2022-10-17T15:36:01;18.40;99.90
8481;DHT22;4277;51.354;6.740;2022-10-17T15:43:19;18.30;99.90
8481;DHT22;4277;51.354;6.740;2022-10-17T15:45:45;18.20;99.90
8481;DHT22;4277;51.354;6.740;2022-10-17T15:48:28;18.20;99.90
8481;DHT22;4277;51.354;6.740;2022-10-17T15:50:54;18.10;99.90
8481;DHT22;4277;51.354;6.740;2022-10-17T15:53:19;18.10;99.90
8481;DHT22;4277;51.354;6.740;2022-10-17T15:55:45;18.10;99.90
8481;DHT22;4277;51.354;6.740;2022-10-17T15:58:15;18.10;99.90
8481;DHT22;4277;51.354;6.740;2022-10-17T16:03:07;18.10;99.90
8481;DHT22;4277;51.354;6.740;2022-10-17T16:05:32;18.00;99.90
8481;DHT22;4277;51.354;6.740;2022-10-17T16:07:58;18.00;99.90
8481;DHT22;4277;51.354;6.740;2022-10-17T16:12:50;18.00;99.90
8481;DHT22;4277;51.354;6.740;2022-10-17T16:15:22;18.00;99.90
8481;DHT22;4277;51.354;6.740;2022-10-17T16:17:48;18.00;99.90
8481;DHT22;4277;51.354;6.740;2022-10-17T16:25:20;17.90;99.90
8481;DHT22;4277;51.354;6.740;2022-10-17T16:27:47;17.80;99.90
8481;DHT22;4277;51.354;6.740;2022-10-17T16:30:12;17.80;99.90
8481;DHT22;4277;51.354;6.740;2022-10-17T16:32:39;17.80;99.90
8481;DHT22;4277;51.354;6.740;2022-10-17T16:42:23;17.60;99.90
8481;DHT22;4277;51.354;6.740;2022-10-17T16:44:49;17.60;99.90
8481;DHT22;4277;51.354;6.740;2022-10-17T16:47:16;17.60;99.90
8481;DHT22;4277;51.354;6.740;2022-10-17T16:49:41;17.50;99.90
8481;DHT22;4277;51.354;6.740;2022-10-17T16:52:07;17.50;99.90
8481;DHT22;4277;51.354;6.740;2022-10-17T16:57:02;17.40;99.90
8481;DHT22;4277;51.354;6.740;2022-10-17T17:06:46;17.40;99.90
8481;DHT22;4277;51.354;6.740;2022-10-17T17:09:12;17.40;99.90
8481;DHT22;4277;51.354;6.740;2022-10-17T17:11:38;17.40;99.90
8481;DHT22;4277;51.354;6.740;2022-10-17T17:14:04;17.40;99.90
8481;DHT22;4277;51.354;6.740;2022-10-17T17:16:31;17.30;99.90
8481;DHT22;4277;51.354;6.740;2022-10-17T17:19:03;17.30;99.90
8481;DHT22;4277;51.354;6.740;2022-10-17T17:21:29;17.30;99.90
8481;DHT22;4277;51.354;6.740;2022-10-17T17:23:57;17.20;99.90
8481;DHT22;4277;51.354;6.740;2022-10-17T17:26:25;17.20;99.90
8481;DHT22;4277;51.354;6.740;2022-10-17T17:28:51;17.20;99.90
8481;DHT22;4277;51.354;6.740;2022-10-17T17:31:24;17.10;99.90
8481;DHT22;4277;51.354;6.740;2022-10-17T17:33:50;17.10;99.90
8481;DHT22;4277;51.354;6.740;2022-10-17T17:36:21;17.20;99.90
8481;DHT22;4277;51.354;6.740;2022-10-17T17:38:48;17.20;99.90
8481;DHT22;4277;51.354;6.740;2022-10-17T17:41:16;17.00;99.90
8481;DHT22;4277;51.354;6.740;2022-10-17T17:43:43;17.10;99.90
8481;DHT22;4277;51.354;6.740;2022-10-17T17:46:09;17.10;99.90
8481;DHT22;4277;51.354;6.740;2022-10-17T17:48:38;17.10;99.90
8481;DHT22;4277;51.354;6.740;2022-10-17T17:51:06;17.00;99.90
8481;DHT22;4277;51.354;6.740;2022-10-17T17:53:32;17.00;99.90
8481;DHT22;4277;51.354;6.740;2022-10-17T17:56:06;17.00;99.90
8481;DHT22;4277;51.354;6.740;2022-10-17T17:58:33;17.10;99.90
8481;DHT22;4277;51.354;6.740;2022-10-17T18:00:59;17.10;99.90
8481;DHT22;4277;51.354;6.740;2022-10-17T18:03:25;17.00;99.90
8481;DHT22;4277;51.354;6.740;2022-10-17T18:05:51;17.00;99.90
8481;DHT22;4277;51.354;6.740;2022-10-17T18:08:17;17.00;99.90
8481;DHT22;4277;51.354;6.740;2022-10-17T18:10:47;17.00;99.90
8481;DHT22;4277;51.354;6.740;2022-10-17T18:13:13;16.90;99.90
8481;DHT22;4277;51.354;6.740;2022-10-17T18:15:42;16.90;99.90
8481;DHT22;4277;51.354;6.740;2022-10-17T18:18:08;16.90;99.90
8481;DHT22;4277;51.354;6.740;2022-10-17T18:20:33;16.80;99.90
8481;DHT22;4277;51.354;6.740;2022-10-17T18:23:00;16.90;99.90
8481;DHT22;4277;51.354;6.740;2022-10-17T18:25:25;16.80;99.90
8481;DHT22;4277;51.354;6.740;2022-10-17T18:27:51;16.80;99.90
8481;DHT22;4277;51.354;6.740;2022-10-17T18:30:16;16.70;99.90
8481;DHT22;4277;51.354;6.740;2022-10-17T18:32:42;16.70;99.90
8481;DHT22;4277;51.354;6.740;2022-10-17T18:35:08;16.70;99.90
8481;DHT22;4277;51.354;6.740;2022-10-17T18:37:33;16.70;99.90
8481;DHT22;4277;51.354;6.740;2022-10-17T18:39:59;16.70;99.90
8481;DHT22;4277;51.354;6.740;2022-10-17T18:42:27;16.70;99.90
8481;DHT22;4277;51.354;6.740;2022-10-17T18:44:52;16.60;99.90
8481;DHT22;4277;51.354;6.740;2022-10-17T18:47:18;16.60;99.90
8481;DHT22;4277;51.354;6.740;2022-10-17T18:49:43;16.60;99.90
8481;DHT22;4277;51.354;6.740;2022-10-17T18:52:09;16.50;99.90
8481;DHT22;4277;51.354;6.740;2022-10-17T18:54:34;16.60;99.90
8481;DHT22;4277;51.354;6.740;2022-10-17T18:57:00;16.60;99.90
8481;DHT22;4277;51.354;6.740;2022-10-17T18:59:26;16.60;99.90
8481;DHT22;4277;51.354;6.740;2022-10-17T19:01:51;16.60;99.90
8481;DHT22;4277;51.354;6.740;2022-10-17T19:04:17;16.50;99.90
8481;DHT22;4277;51.354;6.740;2022-10-17T19:06:42;16.60;99.90
8481;DHT22;4277;51.354;6.740;2022-10-17T19:09:09;16.50;99.90
8481;DHT22;4277;51.354;6.740;2022-10-17T19:11:36;16.50;99.90
8481;DHT22;4277;51.354;6.740;2022-10-17T19:14:04;16.50;99.90
8481;DHT22;4277;51.354;6.740;2022-10-17T19:16:36;16.50;99.90
8481;DHT22;4277;51.354;6.740;2022-10-17T19:19:10;16.50;99.90
8481;DHT22;4277;51.354;6.740;2022-10-17T19:21:36;16.50;99.90
8481;DHT22;4277;51.354;6.740;2022-10-17T19:24:04;16.50;99.90
8481;DHT22;4277;51.354;6.740;2022-10-17T19:26:33;16.50;99.90
8481;DHT22;4277;51.354;6.740;2022-10-17T19:28:59;16.50;99.90
8481;DHT22;4277;51.354;6.740;2022-10-17T19:31:27;16.50;99.90
8481;DHT22;4277;51.354;6.740;2022-10-17T19:33:53;16.50;99.90
8481;DHT22;4277;51.354;6.740;2022-10-17T19:36:20;16.50;99.90
8481;DHT22;4277;51.354;6.740;2022-10-17T19:38:46;16.50;99.90
8481;DHT22;4277;51.354;6.740;2022-10-17T19:41:13;16.40;99.90
8481;DHT22;4277;51.354;6.740;2022-10-17T19:43:40;16.40;99.90
8481;DHT22;4277;51.354;6.740;2022-10-17T19:46:09;16.40;99.90
8481;DHT22;4277;51.354;6.740;2022-10-17T19:48:36;16.40;99.90
8481;DHT22;4277;51.354;6.740;2022-10-17T19:51:03;16.40;99.90
8481;DHT22;4277;51.354;6.740;2022-10-17T19:53:29;16.30;99.90
8481;DHT22;4277;51.354;6.740;2022-10-17T19:55:55;16.40;99.90
8481;DHT22;4277;51.354;6.740;2022-10-17T19:58:22;16.30;99.90
8481;DHT22;4277;51.354;6.740;2022-10-17T20:00:50;16.30;99.90
8481;DHT22;4277;51.354;6.740;2022-10-17T20:03:17;16.30;99.90
8481;DHT22;4277;51.354;6.740;2022-10-17T20:05:42;16.40;99.90
8481;DHT22;4277;51.354;6.740;2022-10-17T20:08:08;16.30;99.90
8481;DHT22;4277;51.354;6.740;2022-10-17T20:10:34;16.30;99.90
8481;DHT22;4277;51.354;6.740;2022-10-17T20:13:01;16.40;99.90
8481;DHT22;4277;51.354;6.740;2022-10-17T20:15:26;16.30;99.90
8481;DHT22;4277;51.354;6.740;2022-10-17T20:17:52;16.30;99.90
8481;DHT22;4277;51.354;6.740;2022-10-17T20:20:17;16.30;99.90
8481;DHT22;4277;51.354;6.740;2022-10-17T20:22:43;16.30;99.90
8481;DHT22;4277;51.354;6.740;2022-10-17T20:25:08;16.30;99.90
8481;DHT22;4277;51.354;6.740;2022-10-17T20:27:34;16.30;99.90
8481;DHT22;4277;51.354;6.740;2022-10-17T20:30:00;16.30;99.90
8481;DHT22;4277;51.354;6.740;2022-10-17T20:32:32;16.30;99.90
8481;DHT22;4277;51.354;6.740;2022-10-17T20:34:59;16.30;99.90
8481;DHT22;4277;51.354;6.740;2022-10-17T20:37:25;16.30;99.90
8481;DHT22;4277;51.354;6.740;2022-10-17T20:39:50;16.20;99.90
8481;DHT22;4277;51.354;6.740;2022-10-17T20:42:16;16.20;99.90
8481;DHT22;4277;51.354;6.740;2022-10-17T20:44:41;16.20;99.90
8481;DHT22;4277;51.354;6.740;2022-10-17T20:47:07;16.20;99.90
8481;DHT22;4277;51.354;6.740;2022-10-17T20:49:32;16.20;99.90
8481;DHT22;4277;51.354;6.740;2022-10-17T20:51:58;16.10;99.90
8481;DHT22;4277;51.354;6.740;2022-10-17T20:54:25;16.10;99.90
8481;DHT22;4277;51.354;6.740;2022-10-17T20:56:52;16.20;99.90
8481;DHT22;4277;51.354;6.740;2022-10-17T20:59:18;16.10;99.90
8481;DHT22;4277;51.354;6.740;2022-10-17T21:01:44;16.10;99.90
8481;DHT22;4277;51.354;6.740;2022-10-17T21:04:11;16.10;99.90
8481;DHT22;4277;51.354;6.740;2022-10-17T21:06:37;16.10;99.90
8481;DHT22;4277;51.354;6.740;2022-10-17T21:09:04;16.00;99.90
8481;DHT22;4277;51.354;6.740;2022-10-17T21:11:30;16.00;99.90
8481;DHT22;4277;51.354;6.740;2022-10-17T21:14:03;16.00;99.90
8481;DHT22;4277;51.354;6.740;2022-10-17T21:16:31;15.90;99.90
8481;DHT22;4277;51.354;6.740;2022-10-17T21:18:57;15.90;99.90
8481;DHT22;4277;51.354;6.740;2022-10-17T21:21:26;15.90;99.90
8481;DHT22;4277;51.354;6.740;2022-10-17T21:23:56;15.80;99.90
8481;DHT22;4277;51.354;6.740;2022-10-17T21:26:22;15.80;99.90
8481;DHT22;4277;51.354;6.740;2022-10-17T21:28:48;15.90;99.90
8481;DHT22;4277;51.354;6.740;2022-10-17T21:31:34;15.90;99.90
8481;DHT22;4277;51.354;6.740;2022-10-17T21:34:04;15.90;99.90
8481;DHT22;4277;51.354;6.740;2022-10-17T21:36:30;15.90;99.90
8481;DHT22;4277;51.354;6.740;2022-10-17T21:38:56;15.90;99.90